Main page
METAR-TAF:

METAR-TAF

Airports :

Deelen Air Base

Arnhem, Netherlands

latitude: 52-04N, longitude: 005-53E, elevation: 48 m

Current weather observation

The report was made 40 minutes ago, at 01:25 UTC
Wind 5 kt from the East/Northeast, varying between North and East
Temperature 16°C
Humidity 88%
Pressure 1017 hPa
Visibility 10 km or more

METAR: EHDL 250125Z AUTO 06005KT 360V100 9999 NCD 16/14 Q1017 BLU

Time: 04:05 (02:05 UTC)


TAF: missing

Weather observations and forecasts of more than 4000 airports (METAR and TAF reports).

The available stations are represented by yellow and red dots on the map.

Hover mouse over dot to see the name of the station.

Then click to see weather observations and forecasts.

To change the map : click on the green buttons with a black cross to zoom in, on the green button with a dash to zoom out, or on the green arrows for adjacent maps.


METAR-TAF: